createdAt,value
2022-08-11T00:01:23.708Z,2.80
2022-08-11T00:03:54.864Z,2.83
2022-08-11T00:06:39.317Z,2.85
2022-08-11T00:09:15.229Z,2.80
2022-08-11T00:11:53.542Z,2.63
2022-08-11T00:14:37.787Z,2.70
2022-08-11T00:17:08.939Z,2.63
2022-08-11T00:20:12.252Z,2.70
2022-08-11T00:22:31.873Z,2.55
2022-08-11T00:25:09.107Z,2.70
2022-08-11T00:27:38.413Z,2.50
2022-08-11T00:30:13.633Z,2.55
2022-08-11T00:32:53.699Z,2.70
2022-08-11T00:35:55.429Z,2.70
2022-08-11T00:38:18.842Z,2.70
2022-08-11T00:41:13.768Z,2.38
2022-08-11T00:46:18.289Z,2.67
2022-08-11T00:48:59.656Z,2.53
2022-08-11T00:52:06.381Z,2.63
2022-08-11T00:55:17.622Z,2.47
2022-08-11T00:58:06.063Z,2.50
2022-08-11T01:00:59.300Z,2.40
2022-08-11T01:04:06.226Z,2.50
2022-08-11T01:08:00.636Z,2.70
2022-08-11T01:10:44.848Z,2.50
2022-08-11T01:13:46.792Z,2.72
2022-08-11T01:16:52.387Z,2.90
2022-08-11T01:20:46.491Z,2.47
2022-08-11T01:23:04.016Z,2.70
2022-08-11T01:26:05.558Z,2.60
2022-08-11T01:29:03.930Z,2.55
2022-08-11T01:31:58.958Z,2.60
2022-08-11T01:34:51.588Z,2.63
2022-08-11T01:37:37.224Z,2.88
2022-08-11T01:40:19.649Z,2.70
2022-08-11T01:43:34.835Z,2.80
2022-08-11T01:46:18.189Z,2.75
2022-08-11T01:48:57.787Z,2.83
2022-08-11T01:51:46.502Z,2.70
2022-08-11T01:54:27.462Z,2.58
2022-08-11T01:57:39.997Z,2.80
2022-08-11T02:00:07.585Z,2.85
2022-08-11T02:02:54.058Z,2.65
2022-08-11T02:05:46.062Z,3.00
2022-08-11T02:08:58.200Z,3.05
2022-08-11T02:11:35.333Z,3.13
2022-08-11T02:14:31.611Z,3.00
2022-08-11T02:17:19.904Z,3.03
2022-08-11T02:20:11.774Z,2.90
2022-08-11T02:24:03.848Z,2.92
2022-08-11T02:26:44.170Z,3.20
2022-08-11T02:29:28.999Z,3.22
2022-08-11T02:32:31.490Z,3.00
2022-08-11T02:35:16.731Z,3.40
2022-08-11T02:37:59.093Z,3.28
2022-08-11T02:40:57.486Z,3.20
2022-08-11T02:43:51.206Z,3.10
2022-08-11T02:46:18.791Z,3.20
2022-08-11T02:49:35.520Z,3.22
2022-08-11T02:52:34.298Z,3.30
2022-08-11T02:55:48.870Z,2.97
2022-08-11T02:58:41.567Z,3.30
2022-08-11T03:01:32.366Z,3.65
2022-08-11T03:04:18.313Z,3.20
2022-08-11T03:07:05.900Z,3.45
2022-08-11T03:10:03.439Z,3.38
2022-08-11T03:13:18.832Z,3.40
2022-08-11T03:16:19.877Z,3.38
2022-08-11T03:19:22.044Z,3.30
2022-08-11T03:22:06.277Z,3.50
2022-08-11T03:27:46.181Z,3.53
2022-08-11T03:30:34.928Z,3.63
2022-08-11T03:33:49.493Z,3.72
2022-08-11T03:37:14.851Z,3.80
2022-08-11T03:40:00.349Z,3.60
2022-08-11T03:42:46.488Z,3.30
2022-08-11T03:45:28.615Z,3.50
2022-08-11T03:48:20.143Z,3.75
2022-08-11T03:51:09.341Z,3.50
2022-08-11T03:54:01.474Z,3.55
2022-08-11T03:56:57.797Z,3.50
2022-08-11T03:59:34.907Z,3.90
2022-08-11T04:02:34.535Z,3.97
2022-08-11T04:05:11.410Z,3.53
2022-08-11T04:08:08.615Z,3.60
2022-08-11T04:10:48.275Z,3.97
2022-08-11T04:13:34.403Z,3.85
2022-08-11T04:16:16.232Z,3.85
2022-08-11T04:18:58.857Z,3.60
2022-08-11T04:21:44.926Z,3.70
2022-08-11T04:24:39.815Z,4.38
2022-08-11T04:30:17.542Z,3.80
2022-08-11T04:33:16.880Z,4.00
2022-08-11T04:36:12.000Z,3.65
2022-08-11T04:39:04.318Z,4.20
2022-08-11T04:42:36.693Z,4.00
2022-08-11T04:45:52.194Z,3.90
2022-08-11T04:49:05.249Z,3.70
2022-08-11T04:52:24.236Z,3.70
2022-08-11T04:55:33.784Z,3.85
2022-08-11T04:58:32.978Z,3.92
2022-08-11T05:01:41.591Z,3.67
2022-08-11T05:04:47.825Z,3.90
2022-08-11T05:07:52.617Z,3.95
2022-08-11T05:10:46.699Z,3.97
2022-08-11T05:13:48.293Z,3.92
2022-08-11T05:16:40.432Z,3.70
2022-08-11T05:19:26.652Z,3.50
2022-08-11T05:22:15.931Z,3.85
2022-08-11T05:25:10.145Z,3.95
2022-08-11T05:28:16.757Z,3.72
2022-08-11T05:31:03.277Z,3.83
2022-08-11T05:34:01.236Z,3.85
2022-08-11T05:36:39.470Z,3.45
2022-08-11T05:39:40.050Z,3.70
2022-08-11T05:42:30.437Z,3.53
2022-08-11T05:45:29.687Z,3.50
2022-08-11T05:48:35.632Z,3.50
2022-08-11T05:51:30.225Z,3.60
2022-08-11T05:57:00.135Z,3.60
2022-08-11T05:59:28.817Z,3.35
2022-08-11T06:02:08.601Z,3.20
2022-08-11T06:04:38.247Z,3.45
2022-08-11T06:07:10.931Z,3.28
2022-08-11T06:09:48.381Z,3.40
2022-08-11T06:12:24.130Z,3.33
2022-08-11T06:14:56.524Z,3.35
2022-08-11T06:17:26.790Z,3.80
2022-08-11T06:20:13.038Z,3.28
2022-08-11T06:22:49.742Z,3.70
2022-08-11T06:25:20.683Z,3.20
2022-08-11T06:27:58.630Z,3.28
2022-08-11T06:30:41.987Z,3.05
2022-08-11T06:33:33.609Z,3.20
2022-08-11T06:36:28.874Z,3.17
2022-08-11T06:39:18.655Z,3.08
2022-08-11T06:41:45.998Z,2.92
2022-08-11T06:44:13.381Z,3.00
2022-08-11T06:46:47.794Z,3.03
2022-08-11T06:49:39.693Z,3.20
2022-08-11T06:52:34.086Z,2.97
2022-08-11T06:55:11.366Z,2.75
2022-08-11T06:58:14.359Z,3.10
2022-08-11T07:00:42.546Z,2.67
2022-08-11T07:03:13.474Z,2.78
2022-08-11T07:06:29.237Z,2.78
2022-08-11T07:09:57.670Z,2.75
2022-08-11T07:13:03.060Z,2.58
2022-08-11T07:16:10.451Z,2.50
2022-08-11T07:18:53.671Z,2.70
2022-08-11T07:22:13.564Z,2.58
2022-08-11T07:25:13.943Z,2.35
2022-08-11T07:28:04.099Z,2.63
2022-08-11T07:30:40.237Z,2.78
2022-08-11T07:33:10.629Z,2.42
2022-08-11T07:35:57.582Z,2.60
2022-08-11T07:38:47.630Z,2.40
2022-08-11T07:41:17.549Z,2.40
2022-08-11T07:43:53.775Z,2.40
2022-08-11T07:46:41.112Z,2.60
2022-08-11T07:49:28.971Z,2.80
2022-08-11T07:52:15.248Z,2.40
2022-08-11T07:54:43.932Z,2.40
2022-08-11T07:57:56.258Z,2.42
2022-08-11T08:00:42.947Z,2.50
2022-08-11T08:03:33.496Z,2.80
2022-08-11T08:06:36.296Z,2.42
2022-08-11T08:09:25.127Z,2.67
2022-08-11T08:12:11.774Z,2.60
2022-08-11T08:14:57.931Z,2.20
2022-08-11T08:18:20.729Z,2.60
2022-08-11T08:20:45.806Z,2.40
2022-08-11T08:23:13.741Z,2.15
2022-08-11T08:25:43.468Z,2.30
2022-08-11T08:28:15.576Z,2.33
2022-08-11T08:30:55.403Z,2.03
2022-08-11T08:33:28.650Z,2.60
2022-08-11T08:36:16.329Z,2.80
2022-08-11T08:38:50.654Z,2.42
2022-08-11T08:41:23.000Z,2.30
2022-08-11T08:43:53.735Z,2.40
2022-08-11T08:46:34.837Z,2.30
2022-08-11T08:49:04.053Z,3.17
2022-08-11T08:51:54.639Z,2.40
2022-08-11T08:54:37.466Z,2.50
2022-08-11T08:57:07.868Z,2.60
2022-08-11T08:59:47.780Z,2.55
2022-08-11T09:02:33.459Z,2.60
2022-08-11T09:05:04.575Z,2.50
2022-08-11T09:07:39.751Z,2.58
2022-08-11T09:10:10.841Z,2.30
2022-08-11T09:12:42.775Z,2.40
2022-08-11T09:15:13.048Z,2.50
2022-08-11T09:17:47.978Z,2.40
2022-08-11T09:20:22.444Z,3.03
2022-08-11T09:24:07.141Z,2.40
2022-08-11T09:26:19.145Z,2.55
2022-08-11T09:28:47.728Z,2.40
2022-08-11T09:31:16.463Z,2.60
2022-08-11T09:33:44.720Z,2.60
2022-08-11T09:36:40.117Z,2.63
2022-08-11T09:39:26.407Z,2.60
2022-08-11T09:42:00.925Z,2.60
2022-08-11T09:44:50.111Z,2.55
2022-08-11T09:47:40.454Z,2.47
2022-08-11T09:50:10.385Z,2.70
2022-08-11T09:52:57.232Z,2.40
2022-08-11T09:55:29.562Z,2.60
2022-08-11T09:58:41.867Z,2.50
2022-08-11T10:01:05.429Z,2.40
2022-08-11T10:03:40.283Z,2.42
2022-08-11T10:06:34.301Z,2.38
2022-08-11T10:09:06.290Z,2.38
2022-08-11T10:11:37.701Z,2.22
2022-08-11T10:14:32.253Z,2.30
2022-08-11T10:17:08.985Z,2.10
2022-08-11T10:19:38.000Z,2.42
2022-08-11T10:22:26.870Z,2.08
2022-08-11T10:25:19.777Z,2.10
2022-08-11T10:28:17.104Z,2.17
2022-08-11T10:31:05.799Z,2.20
2022-08-11T10:33:59.482Z,2.03
2022-08-11T10:36:29.164Z,2.20
2022-08-11T10:38:58.614Z,1.80
2022-08-11T10:42:08.619Z,2.10
2022-08-11T10:44:42.046Z,1.80
2022-08-11T10:47:31.541Z,2.00
2022-08-11T10:50:19.069Z,2.28
2022-08-11T10:53:07.806Z,2.08
2022-08-11T10:55:58.626Z,2.00
2022-08-11T10:58:45.574Z,2.22
2022-08-11T11:01:15.138Z,2.22
2022-08-11T11:03:43.809Z,2.30
2022-08-11T11:06:44.985Z,2.40
2022-08-11T11:09:18.090Z,2.50
2022-08-11T11:12:17.573Z,2.20
2022-08-11T11:15:06.727Z,2.60
2022-08-11T11:17:57.688Z,2.40
2022-08-11T11:20:37.670Z,2.30
2022-08-11T11:23:23.696Z,2.47
2022-08-11T11:26:09.928Z,2.33
2022-08-11T11:28:43.504Z,2.53
2022-08-11T11:34:21.051Z,2.55
2022-08-11T11:36:50.524Z,2.20
2022-08-11T11:39:28.996Z,2.50
2022-08-11T11:42:01.461Z,2.40
2022-08-11T11:44:29.993Z,2.60
2022-08-11T11:46:58.672Z,2.20
2022-08-11T11:49:29.334Z,2.70
2022-08-11T11:51:58.570Z,2.35
2022-08-11T11:54:29.888Z,2.20
2022-08-11T11:57:19.430Z,2.42
2022-08-11T12:00:08.917Z,2.30
2022-08-11T12:02:39.136Z,2.13
2022-08-11T12:05:08.338Z,2.17
2022-08-11T12:07:56.835Z,2.30
2022-08-11T12:10:37.460Z,2.10
2022-08-11T12:13:24.336Z,2.40
2022-08-11T12:16:32.824Z,2.40
2022-08-11T12:18:42.880Z,2.10
2022-08-11T12:21:10.930Z,2.33
2022-08-11T12:24:02.270Z,2.03
2022-08-11T12:27:16.344Z,2.17
2022-08-11T12:29:51.381Z,2.28
2022-08-11T12:32:24.822Z,2.22
2022-08-11T12:34:53.035Z,2.10
2022-08-11T12:37:29.687Z,2.10
2022-08-11T12:40:50.086Z,2.10
2022-08-11T12:43:41.897Z,2.17
2022-08-11T12:46:31.895Z,2.13
2022-08-11T12:49:22.725Z,2.08
2022-08-11T12:52:11.926Z,2.50
2022-08-11T12:55:02.282Z,2.03
2022-08-11T12:58:17.257Z,2.03
2022-08-11T13:01:05.365Z,2.08
2022-08-11T13:03:56.596Z,2.03
2022-08-11T13:06:25.782Z,2.00
2022-08-11T13:09:00.973Z,2.20
2022-08-11T13:11:56.153Z,2.10
2022-08-11T13:14:27.340Z,2.00
2022-08-11T13:17:13.842Z,1.95
2022-08-11T13:19:48.849Z,2.08
2022-08-11T13:22:19.610Z,2.20
2022-08-11T13:24:48.962Z,2.25
2022-08-11T13:27:18.884Z,2.40
2022-08-11T13:29:47.741Z,1.80
2022-08-11T13:32:19.178Z,2.30
2022-08-11T13:34:47.385Z,2.22
2022-08-11T13:37:16.430Z,2.40
2022-08-11T13:39:48.711Z,2.70
2022-08-11T13:42:20.268Z,2.33
2022-08-11T13:44:50.910Z,2.20
2022-08-11T13:47:23.645Z,2.10
2022-08-11T13:49:52.609Z,2.30
2022-08-11T13:52:20.925Z,2.13
2022-08-11T13:54:53.226Z,2.10
2022-08-11T13:58:07.596Z,2.30
2022-08-11T14:00:12.925Z,2.00
2022-08-11T14:02:54.098Z,2.28
2022-08-11T14:05:28.586Z,2.35
2022-08-11T14:08:01.190Z,2.20
2022-08-11T14:10:31.248Z,1.90
2022-08-11T14:13:42.582Z,2.30
2022-08-11T14:16:41.054Z,1.85
2022-08-11T14:19:13.486Z,2.30
2022-08-11T14:22:07.084Z,1.95
2022-08-11T14:24:41.124Z,2.00
2022-08-11T14:29:58.675Z,1.80
2022-08-11T14:32:27.723Z,1.90
2022-08-11T14:34:55.904Z,2.10
2022-08-11T14:37:25.853Z,1.90
2022-08-11T14:40:02.220Z,2.03
2022-08-11T14:42:49.506Z,2.10
2022-08-11T14:45:57.992Z,1.92
2022-08-11T14:48:24.348Z,2.10
2022-08-11T14:50:53.047Z,1.90
2022-08-11T14:53:24.233Z,1.80
2022-08-11T14:56:10.975Z,1.90
2022-08-11T14:58:40.328Z,1.90
2022-08-11T15:01:28.087Z,2.08
2022-08-11T15:04:25.023Z,2.10
2022-08-11T15:06:46.535Z,1.70
2022-08-11T15:09:14.670Z,2.00
2022-08-11T15:12:02.245Z,1.90
2022-08-11T15:14:48.856Z,2.15
2022-08-11T15:17:23.927Z,2.00
2022-08-11T15:20:19.274Z,1.95
2022-08-11T15:23:19.749Z,1.83
2022-08-11T15:26:03.175Z,2.13
2022-08-11T15:28:55.573Z,2.13
2022-08-11T15:31:27.680Z,1.98
2022-08-11T15:34:20.051Z,2.17
2022-08-11T15:37:12.548Z,2.05
2022-08-11T15:40:31.949Z,1.92
2022-08-11T15:43:43.846Z,1.90
2022-08-11T15:46:16.739Z,1.90
2022-08-11T15:49:03.081Z,2.05
2022-08-11T15:51:35.976Z,2.00
2022-08-11T15:54:11.692Z,1.90
2022-08-11T15:56:43.176Z,2.10
2022-08-11T15:59:43.209Z,1.98
2022-08-11T16:02:17.707Z,2.00
2022-08-11T16:04:47.317Z,2.17
2022-08-11T16:07:27.275Z,2.10
2022-08-11T16:10:10.783Z,2.05
2022-08-11T16:13:07.252Z,2.03
2022-08-11T16:15:56.858Z,1.90
2022-08-11T16:18:40.627Z,2.00
2022-08-11T16:21:33.966Z,2.10
2022-08-11T16:25:58.137Z,2.03
2022-08-11T16:27:10.281Z,1.92
2022-08-11T16:29:47.995Z,1.80
2022-08-11T16:32:23.724Z,1.90
2022-08-11T16:35:26.683Z,1.80
2022-08-11T16:38:15.477Z,1.75
2022-08-11T16:40:44.382Z,1.73
2022-08-11T16:43:35.421Z,2.05
2022-08-11T16:46:24.302Z,1.90
2022-08-11T16:48:53.610Z,1.90
2022-08-11T16:51:22.556Z,2.00
2022-08-11T16:54:03.991Z,2.03
2022-08-11T16:56:51.514Z,2.08
2022-08-11T16:59:25.854Z,1.77
2022-08-11T17:02:03.031Z,1.98
2022-08-11T17:05:08.773Z,1.90
2022-08-11T17:07:59.311Z,1.90
2022-08-11T17:11:09.122Z,2.10
2022-08-11T17:13:42.521Z,2.10
2022-08-11T17:16:13.585Z,1.90
2022-08-11T17:18:45.655Z,1.80
2022-08-11T17:21:21.881Z,1.80
2022-08-11T17:23:55.928Z,1.80
2022-08-11T17:26:51.629Z,1.90
2022-08-11T17:29:32.941Z,1.55
2022-08-11T17:32:22.404Z,1.77
2022-08-11T17:35:11.894Z,1.90
2022-08-11T17:37:41.061Z,1.90
2022-08-11T17:40:12.337Z,1.75
2022-08-11T17:43:00.170Z,1.90
2022-08-11T17:45:47.133Z,2.00
2022-08-11T17:48:28.153Z,1.80
2022-08-11T17:51:07.118Z,2.00
2022-08-11T17:54:18.179Z,2.03
2022-08-11T17:57:20.127Z,1.73
2022-08-11T17:59:56.977Z,2.17
2022-08-11T18:02:47.818Z,2.00
2022-08-11T18:05:20.948Z,2.00
2022-08-11T18:08:11.842Z,1.95
2022-08-11T18:10:59.676Z,1.70
2022-08-11T18:13:48.510Z,1.70
2022-08-11T18:16:34.809Z,1.63
2022-08-11T18:19:20.754Z,1.65
2022-08-11T18:22:15.402Z,1.75
2022-08-11T18:25:14.065Z,1.85
2022-08-11T18:28:03.329Z,1.67
2022-08-11T18:31:03.676Z,1.60
2022-08-11T18:34:10.013Z,1.63
2022-08-11T18:37:19.567Z,1.90
2022-08-11T18:40:26.740Z,1.60
2022-08-11T18:43:16.183Z,1.70
2022-08-11T18:46:07.734Z,1.80
2022-08-11T18:49:05.755Z,1.48
2022-08-11T18:51:52.984Z,1.67
2022-08-11T18:54:41.472Z,1.70
2022-08-11T18:57:29.198Z,1.60
2022-08-11T19:00:20.605Z,1.58
2022-08-11T19:03:07.378Z,1.70
2022-08-11T19:06:35.809Z,1.98
2022-08-11T19:09:21.031Z,2.40
2022-08-11T19:12:07.909Z,2.43
2022-08-11T19:14:56.091Z,2.28
2022-08-11T19:17:45.878Z,2.10
2022-08-11T19:20:35.874Z,1.80
2022-08-11T19:23:24.788Z,1.70
2022-08-11T19:26:11.508Z,1.77
2022-08-11T19:28:59.864Z,1.80
2022-08-11T19:31:46.649Z,1.95
2022-08-11T19:34:39.514Z,1.80
2022-08-11T19:37:26.569Z,1.80
2022-08-11T19:40:26.438Z,2.00
2022-08-11T19:43:25.845Z,1.70
2022-08-11T19:46:18.909Z,2.08
2022-08-11T19:49:09.673Z,1.83
2022-08-11T19:51:57.362Z,1.80
2022-08-11T19:54:46.330Z,1.90
2022-08-11T19:57:38.950Z,1.98
2022-08-11T20:00:35.984Z,2.03
2022-08-11T20:03:26.062Z,1.98
2022-08-11T20:06:16.036Z,1.90
2022-08-11T20:09:04.011Z,2.20
2022-08-11T20:11:57.409Z,1.73
2022-08-11T20:14:46.223Z,2.00
2022-08-11T20:17:33.572Z,2.03
2022-08-11T20:20:25.847Z,2.10
2022-08-11T20:23:15.927Z,2.00
2022-08-11T20:26:27.604Z,1.85
2022-08-11T20:29:10.447Z,2.05
2022-08-11T20:31:57.527Z,1.90
2022-08-11T20:34:43.940Z,2.20
2022-08-11T20:37:30.929Z,1.90
2022-08-11T20:40:17.537Z,1.90
2022-08-11T20:44:05.060Z,2.28
2022-08-11T20:46:17.162Z,1.90
2022-08-11T20:49:05.115Z,2.10
2022-08-11T20:51:52.963Z,2.08
2022-08-11T20:54:43.669Z,2.00
2022-08-11T20:57:59.321Z,2.05
2022-08-11T21:00:44.023Z,2.00
2022-08-11T21:03:36.081Z,2.03
2022-08-11T21:06:31.511Z,2.00
2022-08-11T21:09:23.765Z,2.00
2022-08-11T21:12:15.257Z,1.95
2022-08-11T21:15:04.804Z,1.90
2022-08-11T21:18:00.667Z,2.15
2022-08-11T21:20:59.297Z,1.85
2022-08-11T21:23:48.710Z,2.00
2022-08-11T21:26:37.232Z,2.05
2022-08-11T21:29:25.574Z,2.20
2022-08-11T21:32:12.563Z,2.00
2022-08-11T21:35:01.828Z,1.90
2022-08-11T21:37:50.302Z,2.20
2022-08-11T21:40:38.916Z,2.17
2022-08-11T21:43:25.700Z,2.45
2022-08-11T21:46:12.493Z,2.30
2022-08-11T21:49:00.037Z,2.20
2022-08-11T21:51:46.184Z,2.08
2022-08-11T21:54:33.064Z,2.20
2022-08-11T21:57:20.303Z,2.17
2022-08-11T22:00:15.193Z,2.10
2022-08-11T22:03:04.139Z,2.20
2022-08-11T22:05:52.148Z,1.90
2022-08-11T22:08:39.369Z,2.13
2022-08-11T22:11:32.464Z,2.28
2022-08-11T22:14:19.986Z,2.10
2022-08-11T22:17:06.004Z,2.20
2022-08-11T22:19:54.554Z,2.10
2022-08-11T22:22:52.006Z,2.15
2022-08-11T22:25:51.240Z,1.90
2022-08-11T22:28:38.007Z,2.13
2022-08-11T22:31:25.662Z,2.33
2022-08-11T22:34:11.556Z,2.00
2022-08-11T22:36:59.102Z,2.15
2022-08-11T22:40:00.063Z,2.40
2022-08-11T22:42:52.558Z,2.03
2022-08-11T22:45:39.307Z,2.40
2022-08-11T22:48:27.484Z,2.22
2022-08-11T22:51:16.461Z,2.28
2022-08-11T22:54:04.664Z,2.42
2022-08-11T22:56:51.197Z,2.20
2022-08-11T22:59:38.591Z,2.15
2022-08-11T23:02:25.854Z,2.38
2022-08-11T23:05:13.230Z,2.25
2022-08-11T23:08:02.500Z,2.47
2022-08-11T23:10:49.160Z,2.33
2022-08-11T23:13:35.044Z,2.47
2022-08-11T23:16:21.376Z,2.20
2022-08-11T23:19:08.616Z,2.30
2022-08-11T23:21:56.285Z,2.55
2022-08-11T23:24:44.185Z,2.40
2022-08-11T23:27:32.117Z,2.22
2022-08-11T23:30:19.515Z,2.22
2022-08-11T23:33:09.774Z,2.47
2022-08-11T23:36:02.215Z,2.53
2022-08-11T23:38:51.808Z,2.20
2022-08-11T23:41:38.653Z,2.80
2022-08-11T23:44:25.963Z,2.63
2022-08-11T23:47:19.750Z,2.40
2022-08-11T23:50:06.575Z,2.38
2022-08-11T23:52:53.820Z,2.30
2022-08-11T23:55:40.116Z,2.55
2022-08-11T23:58:26.749Z,2.65
